createdAt,value
2023-05-16T00:01:15.519Z,13.57
2023-05-16T00:03:42.979Z,13.64
2023-05-16T00:06:12.516Z,13.61
2023-05-16T00:08:39.360Z,13.64
2023-05-16T00:11:06.132Z,13.59
2023-05-16T00:13:32.798Z,13.62
2023-05-16T00:15:59.596Z,13.63
2023-05-16T00:18:26.393Z,13.66
2023-05-16T00:20:53.092Z,13.67
2023-05-16T00:23:21.393Z,13.60
2023-05-16T00:25:49.116Z,13.59
2023-05-16T00:28:15.998Z,13.60
2023-05-16T00:30:42.663Z,13.58
2023-05-16T00:33:09.358Z,13.56
2023-05-16T00:35:36.050Z,13.53
2023-05-16T00:38:02.768Z,13.52
2023-05-16T00:40:29.561Z,13.52
2023-05-16T00:43:02.216Z,13.47
2023-05-16T00:45:28.889Z,13.48
2023-05-16T00:47:55.655Z,13.47
2023-05-16T00:50:22.372Z,13.44
2023-05-16T00:52:49.208Z,13.42
2023-05-16T00:55:20.591Z,13.45
2023-05-16T00:57:49.938Z,13.46
2023-05-16T01:00:17.254Z,13.49
2023-05-16T01:02:44.299Z,13.52
2023-05-16T01:05:11.283Z,13.52
2023-05-16T01:07:38.156Z,13.49
2023-05-16T01:10:06.260Z,13.52
2023-05-16T01:12:50.847Z,13.56
2023-05-16T01:15:30.728Z,13.62
2023-05-16T01:18:12.319Z,13.60
2023-05-16T01:20:41.778Z,13.55
2023-05-16T01:23:14.336Z,13.55
2023-05-16T01:25:52.788Z,13.48
2023-05-16T01:28:29.683Z,13.47
2023-05-16T01:30:56.361Z,13.55
2023-05-16T01:33:23.019Z,13.54
2023-05-16T01:36:17.178Z,13.54
2023-05-16T01:38:59.798Z,13.56
2023-05-16T01:41:41.584Z,13.56
2023-05-16T01:44:17.192Z,13.59
2023-05-16T01:46:50.652Z,13.60
2023-05-16T01:50:01.999Z,13.60
2023-05-16T01:52:42.831Z,13.61
2023-05-16T01:55:29.854Z,13.64
2023-05-16T01:57:58.307Z,13.62
2023-05-16T02:00:25.148Z,13.64
2023-05-16T02:02:51.835Z,13.63
2023-05-16T02:05:21.696Z,13.66
2023-05-16T02:07:49.665Z,13.68
2023-05-16T02:10:16.613Z,13.70
2023-05-16T02:12:43.236Z,13.68
2023-05-16T02:15:10.295Z,13.67
2023-05-16T02:17:36.903Z,13.65
2023-05-16T02:20:08.236Z,13.62
2023-05-16T02:22:34.937Z,13.64
2023-05-16T02:25:03.303Z,13.60
2023-05-16T02:27:30.453Z,13.62
2023-05-16T02:29:57.341Z,13.62
2023-05-16T02:32:24.323Z,13.64
2023-05-16T02:34:51.054Z,13.66
2023-05-16T02:37:17.688Z,13.69
2023-05-16T02:39:44.474Z,13.69
2023-05-16T02:42:11.437Z,13.70
2023-05-16T02:44:38.064Z,13.71
2023-05-16T02:47:05.216Z,13.68
2023-05-16T02:49:35.602Z,13.70
2023-05-16T02:52:02.326Z,13.69
2023-05-16T02:54:29.077Z,13.67
2023-05-16T02:56:55.731Z,13.71
2023-05-16T02:59:22.392Z,13.66
2023-05-16T03:01:49.076Z,13.67
2023-05-16T03:04:16.023Z,13.64
2023-05-16T03:06:43.727Z,13.70
2023-05-16T03:09:10.478Z,13.67
2023-05-16T03:11:37.264Z,13.66
2023-05-16T03:14:04.012Z,13.68
2023-05-16T03:16:30.774Z,13.72
2023-05-16T03:18:57.664Z,13.69
2023-05-16T03:21:24.351Z,13.69
2023-05-16T03:23:50.962Z,13.66
2023-05-16T03:26:18.735Z,13.67
2023-05-16T03:28:45.338Z,13.66
2023-05-16T03:31:12.052Z,13.67
2023-05-16T03:33:38.807Z,13.68
2023-05-16T03:36:05.927Z,13.67
2023-05-16T03:38:36.379Z,13.68
2023-05-16T03:41:03.069Z,13.69
2023-05-16T03:43:31.608Z,13.68
2023-05-16T03:45:58.444Z,13.73
2023-05-16T03:48:25.480Z,13.75
2023-05-16T03:50:52.202Z,13.75
2023-05-16T03:53:23.928Z,13.73
2023-05-16T03:55:50.525Z,13.74
2023-05-16T03:58:17.281Z,13.76
2023-05-16T04:00:44.023Z,13.74
2023-05-16T04:03:10.668Z,13.75
2023-05-16T04:05:37.339Z,13.76
2023-05-16T04:08:06.486Z,13.75
2023-05-16T04:10:34.484Z,13.73
2023-05-16T04:13:01.593Z,13.69
2023-05-16T04:15:28.780Z,13.69
2023-05-16T04:17:55.743Z,13.68
2023-05-16T04:20:22.463Z,13.65
2023-05-16T04:22:49.124Z,13.67
2023-05-16T04:25:15.843Z,13.68
2023-05-16T04:27:43.638Z,13.65
2023-05-16T04:30:11.212Z,13.66
2023-05-16T04:32:37.998Z,13.68
2023-05-16T04:35:04.877Z,13.71
2023-05-16T04:37:32.184Z,13.72
2023-05-16T04:39:59.079Z,13.78
2023-05-16T04:42:25.670Z,13.77
2023-05-16T04:44:52.641Z,13.78
2023-05-16T04:47:19.535Z,13.80
2023-05-16T04:49:47.787Z,13.80
2023-05-16T04:52:14.677Z,13.84
2023-05-16T04:54:42.516Z,13.87
2023-05-16T04:57:10.977Z,13.89
2023-05-16T04:59:37.589Z,13.94
2023-05-16T05:02:09.894Z,13.94
2023-05-16T05:04:36.717Z,13.94
2023-05-16T05:07:03.468Z,13.98
2023-05-16T05:09:30.181Z,14.02
2023-05-16T05:11:58.631Z,14.01
2023-05-16T05:14:25.405Z,14.06
2023-05-16T05:16:53.656Z,14.06
2023-05-16T05:19:20.343Z,14.10
2023-05-16T05:21:47.013Z,14.14
2023-05-16T05:24:13.773Z,14.17
2023-05-16T05:26:43.778Z,14.18
2023-05-16T05:29:10.403Z,14.18
2023-05-16T05:31:38.377Z,14.18
2023-05-16T05:34:05.024Z,14.20
2023-05-16T05:36:31.709Z,14.21
2023-05-16T05:38:58.439Z,14.26
2023-05-16T05:41:28.368Z,14.29
2023-05-16T05:43:55.074Z,14.29
2023-05-16T05:46:22.327Z,14.31
2023-05-16T05:48:51.964Z,14.31
2023-05-16T05:51:19.055Z,14.38
2023-05-16T05:53:48.370Z,14.44
2023-05-16T05:56:15.272Z,14.46
2023-05-16T05:58:41.995Z,14.46
2023-05-16T06:01:08.650Z,14.50
2023-05-16T06:03:35.889Z,14.47
2023-05-16T06:06:04.151Z,14.54
2023-05-16T06:08:30.915Z,14.55
2023-05-16T06:10:57.545Z,14.58
2023-05-16T06:13:26.856Z,14.63
2023-05-16T06:15:54.700Z,14.68
2023-05-16T06:18:23.254Z,14.70
2023-05-16T06:20:49.981Z,14.71
2023-05-16T06:23:16.584Z,14.72
2023-05-16T06:25:43.184Z,14.74
2023-05-16T06:28:10.141Z,14.76
2023-05-16T06:30:39.180Z,14.79
2023-05-16T06:33:05.990Z,14.80
2023-05-16T06:35:32.620Z,14.84
2023-05-16T06:37:59.303Z,14.80
2023-05-16T06:40:28.842Z,14.82
2023-05-16T06:42:58.855Z,14.85
2023-05-16T06:45:25.728Z,14.84
2023-05-16T06:47:54.142Z,14.82
2023-05-16T06:50:22.934Z,14.82
2023-05-16T06:52:52.367Z,14.81
2023-05-16T06:55:19.361Z,14.79
2023-05-16T06:57:47.109Z,14.82
2023-05-16T07:00:14.513Z,14.81
2023-05-16T07:02:41.396Z,14.78
2023-05-16T07:05:08.500Z,14.79
2023-05-16T07:07:36.761Z,14.79
2023-05-16T07:10:04.317Z,14.82
2023-05-16T07:12:31.148Z,14.83
2023-05-16T07:14:59.875Z,14.87
2023-05-16T07:17:27.223Z,14.93
2023-05-16T07:19:54.131Z,14.95
2023-05-16T07:22:20.804Z,14.99
2023-05-16T07:24:47.631Z,15.03
2023-05-16T07:27:14.472Z,15.06
2023-05-16T07:29:41.718Z,15.08
2023-05-16T07:32:08.815Z,15.08
2023-05-16T07:34:37.840Z,15.11
2023-05-16T07:37:04.849Z,15.11
2023-05-16T07:39:31.637Z,15.11
2023-05-16T07:41:58.418Z,15.15
2023-05-16T07:44:25.369Z,15.18
2023-05-16T07:46:52.349Z,15.20
2023-05-16T07:49:19.137Z,15.21
2023-05-16T07:51:47.260Z,15.19
2023-05-16T07:54:16.705Z,15.26
2023-05-16T07:56:43.576Z,15.29
2023-05-16T07:59:10.535Z,15.32
2023-05-16T08:01:37.358Z,15.33
2023-05-16T08:04:04.425Z,15.38
2023-05-16T08:06:31.152Z,15.39
2023-05-16T08:08:59.170Z,15.41
2023-05-16T08:11:29.003Z,15.45
2023-05-16T08:13:55.860Z,15.49
2023-05-16T08:16:22.617Z,15.51
2023-05-16T08:18:51.843Z,15.54
2023-05-16T08:21:18.531Z,15.56
2023-05-16T08:23:45.225Z,15.58
2023-05-16T08:26:11.866Z,15.56
2023-05-16T08:28:38.765Z,15.57
2023-05-16T08:31:05.965Z,15.58
2023-05-16T08:33:32.668Z,15.58
2023-05-16T08:35:59.381Z,15.60
2023-05-16T08:38:26.433Z,15.59
2023-05-16T08:40:56.700Z,15.60
2023-05-16T08:43:23.770Z,15.63
2023-05-16T08:45:50.514Z,15.63
2023-05-16T08:48:20.039Z,15.64
2023-05-16T08:50:46.786Z,15.63
2023-05-16T08:53:17.734Z,15.65
2023-05-16T08:55:50.411Z,15.61
2023-05-16T08:58:17.793Z,15.60
2023-05-16T09:00:45.715Z,15.63
2023-05-16T09:03:13.863Z,15.63
2023-05-16T09:05:43.997Z,15.65
2023-05-16T09:08:11.954Z,15.63
2023-05-16T09:10:39.129Z,15.65
2023-05-16T09:13:08.734Z,15.60
2023-05-16T09:15:41.704Z,15.55
2023-05-16T09:18:12.998Z,15.55
2023-05-16T09:20:47.692Z,15.50
2023-05-16T09:23:24.766Z,15.52
2023-05-16T09:25:53.804Z,15.47
2023-05-16T09:28:25.598Z,15.44
2023-05-16T09:30:53.851Z,15.44
2023-05-16T09:33:25.969Z,15.48
2023-05-16T09:36:02.080Z,15.53
2023-05-16T09:38:29.171Z,15.57
2023-05-16T09:40:56.266Z,15.59
2023-05-16T09:43:30.161Z,15.62
2023-05-16T09:46:03.904Z,15.64
2023-05-16T09:48:33.002Z,15.68
2023-05-16T09:51:03.506Z,15.66
2023-05-16T09:53:34.315Z,15.65
2023-05-16T09:56:06.052Z,15.69
2023-05-16T09:58:37.637Z,15.71
2023-05-16T10:01:11.212Z,15.72
2023-05-16T10:03:40.511Z,15.74
2023-05-16T10:06:10.148Z,15.76
2023-05-16T10:08:37.691Z,15.78
2023-05-16T10:11:05.989Z,15.77
2023-05-16T10:13:34.827Z,15.77
2023-05-16T10:16:08.483Z,15.77
2023-05-16T10:18:41.130Z,15.79
2023-05-16T10:21:15.738Z,15.82
2023-05-16T10:23:43.745Z,15.84
2023-05-16T10:26:12.313Z,15.87
2023-05-16T10:28:40.851Z,15.93
2023-05-16T10:31:15.150Z,15.97
2023-05-16T10:33:51.324Z,16.01
2023-05-16T10:39:02.435Z,16.09
2023-05-16T10:41:29.671Z,16.11
2023-05-16T10:43:59.270Z,16.11
2023-05-16T10:46:30.919Z,16.14
2023-05-16T10:48:58.856Z,16.15
2023-05-16T10:51:39.084Z,16.18
2023-05-16T10:54:09.478Z,16.22
2023-05-16T10:56:36.405Z,16.27
2023-05-16T10:59:03.228Z,16.36
2023-05-16T11:01:36.749Z,16.42
2023-05-16T11:04:13.183Z,16.47
2023-05-16T11:06:42.795Z,16.56
2023-05-16T11:09:12.477Z,16.57
2023-05-16T11:11:52.219Z,16.57
2023-05-16T11:14:37.787Z,16.54
2023-05-16T11:17:16.514Z,16.52
2023-05-16T11:19:55.319Z,16.50
2023-05-16T11:22:40.186Z,16.50
2023-05-16T11:25:12.857Z,16.50
2023-05-16T11:27:50.425Z,16.55
2023-05-16T11:30:18.710Z,16.59
2023-05-16T11:32:47.143Z,16.61
2023-05-16T11:35:18.074Z,16.66
2023-05-16T11:37:48.059Z,16.65
2023-05-16T11:40:18.102Z,16.68
2023-05-16T11:42:49.122Z,16.71
2023-05-16T11:45:20.606Z,16.76
2023-05-16T11:47:49.129Z,16.81
2023-05-16T11:50:20.872Z,16.83
2023-05-16T11:52:50.209Z,16.88
2023-05-16T11:55:28.414Z,16.91
2023-05-16T11:58:03.853Z,16.95
2023-05-16T12:00:30.722Z,16.96
2023-05-16T12:03:02.661Z,16.97
2023-05-16T12:05:29.735Z,16.96
2023-05-16T12:08:03.353Z,16.98
2023-05-16T12:10:32.083Z,16.95
2023-05-16T12:13:00.918Z,16.97
2023-05-16T12:15:28.173Z,17.00
2023-05-16T12:17:56.668Z,16.98
2023-05-16T12:20:24.947Z,17.03
2023-05-16T12:22:58.940Z,17.09
2023-05-16T12:25:28.469Z,17.14
2023-05-16T12:28:00.609Z,17.18
2023-05-16T12:30:29.828Z,17.21
2023-05-16T12:33:03.420Z,17.26
2023-05-16T12:35:34.624Z,17.31
2023-05-16T12:38:08.922Z,17.36
2023-05-16T12:40:40.202Z,17.43
2023-05-16T12:43:20.070Z,17.45
2023-05-16T12:45:57.490Z,17.45
2023-05-16T12:48:33.140Z,17.43
2023-05-16T12:51:14.251Z,17.42
2023-05-16T12:53:57.475Z,17.43
2023-05-16T12:56:31.643Z,17.42
2023-05-16T12:58:58.528Z,17.40
2023-05-16T13:01:25.733Z,17.41
2023-05-16T13:03:53.172Z,17.43
2023-05-16T13:06:19.981Z,17.42
2023-05-16T13:08:46.900Z,17.43
2023-05-16T13:11:13.591Z,17.43
2023-05-16T13:13:40.312Z,17.42
2023-05-16T13:16:11.662Z,17.39
2023-05-16T13:18:38.673Z,17.36
2023-05-16T13:21:05.872Z,17.36
2023-05-16T13:23:32.922Z,17.36
2023-05-16T13:26:00.510Z,17.35
2023-05-16T13:28:27.368Z,17.34
2023-05-16T13:31:00.187Z,17.33
2023-05-16T13:33:27.648Z,17.30
2023-05-16T13:35:54.364Z,17.31
2023-05-16T13:38:21.090Z,17.29
2023-05-16T13:40:49.742Z,17.31
2023-05-16T13:43:16.478Z,17.31
2023-05-16T13:45:44.844Z,17.32
2023-05-16T13:48:11.671Z,17.34
2023-05-16T13:50:44.316Z,17.37
2023-05-16T13:53:11.399Z,17.38
2023-05-16T13:55:38.212Z,17.40
2023-05-16T13:58:04.951Z,17.38
2023-05-16T14:00:44.076Z,17.39
2023-05-16T14:03:12.321Z,17.41
2023-05-16T14:05:39.070Z,17.41
2023-05-16T14:08:06.478Z,17.42
2023-05-16T14:10:36.274Z,17.45
2023-05-16T14:13:03.089Z,17.47
2023-05-16T14:15:32.579Z,17.49
2023-05-16T14:17:59.411Z,17.48
2023-05-16T14:20:26.484Z,17.48
2023-05-16T14:22:53.236Z,17.46
2023-05-16T14:25:19.933Z,17.41
2023-05-16T14:27:46.677Z,17.40
2023-05-16T14:30:13.681Z,17.36
2023-05-16T14:32:47.776Z,17.35
2023-05-16T14:35:14.503Z,17.34
2023-05-16T14:37:41.365Z,17.32
2023-05-16T14:40:08.439Z,17.31
2023-05-16T14:42:35.190Z,17.31
2023-05-16T14:45:02.196Z,17.29
2023-05-16T14:47:32.313Z,17.30
2023-05-16T14:49:59.209Z,17.31
2023-05-16T14:52:26.322Z,17.30
2023-05-16T14:54:53.194Z,17.31
2023-05-16T14:57:19.838Z,17.37
2023-05-16T14:59:46.711Z,17.38
2023-05-16T15:02:13.612Z,17.40
2023-05-16T15:04:40.428Z,17.41
2023-05-16T15:07:12.315Z,17.43
2023-05-16T15:09:39.096Z,17.45
2023-05-16T15:12:06.546Z,17.47
2023-05-16T15:14:44.487Z,17.48
2023-05-16T15:17:11.153Z,17.50
2023-05-16T15:19:46.821Z,17.54
2023-05-16T15:22:13.516Z,17.53
2023-05-16T15:24:40.242Z,17.57
2023-05-16T15:27:06.943Z,17.57
2023-05-16T15:29:36.057Z,17.57
2023-05-16T15:32:06.481Z,17.59
2023-05-16T15:34:35.712Z,17.60
2023-05-16T15:37:02.446Z,17.63
2023-05-16T15:39:29.944Z,17.66
2023-05-16T15:42:09.899Z,17.71
2023-05-16T15:44:37.404Z,17.77
2023-05-16T15:47:04.340Z,17.80
2023-05-16T15:49:30.987Z,17.82
2023-05-16T15:51:57.934Z,17.82
2023-05-16T15:54:30.368Z,17.82
2023-05-16T15:57:01.535Z,17.79
2023-05-16T15:59:32.930Z,17.80
2023-05-16T16:02:01.539Z,17.80
2023-05-16T16:04:28.216Z,17.79
2023-05-16T16:06:54.878Z,17.79
2023-05-16T16:09:23.911Z,17.72
2023-05-16T16:12:01.620Z,17.71
2023-05-16T16:14:29.787Z,17.67
2023-05-16T16:16:56.860Z,17.67
2023-05-16T16:19:26.889Z,17.66
2023-05-16T16:21:54.689Z,17.64
2023-05-16T16:24:22.733Z,17.64
2023-05-16T16:26:49.564Z,17.64
2023-05-16T16:29:18.940Z,17.63
2023-05-16T16:31:45.615Z,17.62
2023-05-16T16:34:12.488Z,17.65
2023-05-16T16:36:44.320Z,17.62
2023-05-16T16:39:15.016Z,17.59
2023-05-16T16:41:42.255Z,17.59
2023-05-16T16:44:09.007Z,17.56
2023-05-16T16:46:39.352Z,17.54
2023-05-16T16:49:06.117Z,17.53
2023-05-16T16:51:37.714Z,17.50
2023-05-16T16:54:04.952Z,17.48
2023-05-16T16:56:32.086Z,17.46
2023-05-16T16:59:10.107Z,17.45
2023-05-16T17:01:37.298Z,17.46
2023-05-16T17:04:04.461Z,17.43
2023-05-16T17:06:31.739Z,17.47
2023-05-16T17:08:58.638Z,17.42
2023-05-16T17:11:32.103Z,17.45
2023-05-16T17:14:04.392Z,17.44
2023-05-16T17:16:31.155Z,17.47
2023-05-16T17:18:58.129Z,17.42
2023-05-16T17:21:32.920Z,17.42
2023-05-16T17:23:59.611Z,17.46
2023-05-16T17:26:32.072Z,17.43
2023-05-16T17:28:59.118Z,17.41
2023-05-16T17:31:26.252Z,17.38
2023-05-16T17:33:58.825Z,17.40
2023-05-16T17:36:25.483Z,17.38
2023-05-16T17:38:52.580Z,17.34
2023-05-16T17:41:19.338Z,17.37
2023-05-16T17:43:46.802Z,17.36
2023-05-16T17:46:13.530Z,17.36
2023-05-16T17:48:40.288Z,17.36
2023-05-16T17:51:10.283Z,17.37
2023-05-16T17:53:36.953Z,17.35
2023-05-16T17:56:03.730Z,17.32
2023-05-16T17:58:30.413Z,17.29
2023-05-16T18:01:01.519Z,17.35
2023-05-16T18:03:28.156Z,17.34
2023-05-16T18:05:58.421Z,17.35
2023-05-16T18:08:25.236Z,17.35
2023-05-16T18:10:52.661Z,17.30
2023-05-16T18:13:20.650Z,17.34
2023-05-16T18:15:47.404Z,17.31
2023-05-16T18:18:14.293Z,17.38
2023-05-16T18:20:41.225Z,17.31
2023-05-16T18:23:14.858Z,17.32
2023-05-16T18:25:44.143Z,17.32
2023-05-16T18:28:11.083Z,17.28
2023-05-16T18:30:38.327Z,17.24
2023-05-16T18:33:06.514Z,17.22
2023-05-16T18:35:33.373Z,17.17
2023-05-16T18:38:02.371Z,17.15
2023-05-16T18:40:32.063Z,17.14
2023-05-16T18:43:02.028Z,17.11
2023-05-16T18:45:31.853Z,17.15
2023-05-16T18:47:58.726Z,17.13
2023-05-16T18:50:27.365Z,17.16
2023-05-16T18:52:53.984Z,17.11
2023-05-16T18:55:24.070Z,17.09
2023-05-16T18:57:51.065Z,17.08
2023-05-16T19:00:18.674Z,17.08
2023-05-16T19:02:48.400Z,17.11
2023-05-16T19:05:20.286Z,17.11
2023-05-16T19:07:53.472Z,17.17
2023-05-16T19:10:38.482Z,17.18
2023-05-16T19:13:10.709Z,17.19
2023-05-16T19:15:51.256Z,17.19
2023-05-16T19:18:18.030Z,17.19
2023-05-16T19:20:45.659Z,17.23
2023-05-16T19:23:12.472Z,17.24
2023-05-16T19:25:39.111Z,17.23
2023-05-16T19:28:05.796Z,17.13
2023-05-16T19:30:36.442Z,17.14
2023-05-16T19:33:34.221Z,17.15
2023-05-16T19:36:19.584Z,17.03
2023-05-16T19:38:48.982Z,16.99
2023-05-16T19:41:23.403Z,16.95
2023-05-16T19:43:53.659Z,16.96
2023-05-16T19:46:32.272Z,16.91
2023-05-16T19:48:59.227Z,16.88
2023-05-16T19:51:40.717Z,16.89
2023-05-16T19:54:08.494Z,16.82
2023-05-16T19:56:35.264Z,16.80
2023-05-16T19:59:01.929Z,16.79
2023-05-16T20:01:30.766Z,16.77
2023-05-16T20:03:58.111Z,16.75
2023-05-16T20:09:05.449Z,16.79
2023-05-16T20:11:32.255Z,16.80
2023-05-16T20:13:59.390Z,16.79
2023-05-16T20:16:32.820Z,16.79
2023-05-16T20:19:03.069Z,16.79
2023-05-16T20:21:31.166Z,16.80
2023-05-16T20:26:39.367Z,16.79
2023-05-16T20:29:06.262Z,16.76
2023-05-16T20:31:32.947Z,16.75
2023-05-16T20:34:02.566Z,16.74
2023-05-16T20:36:32.410Z,16.75
2023-05-16T20:38:59.134Z,16.75
2023-05-16T20:41:25.858Z,16.76
2023-05-16T20:43:52.576Z,16.77
2023-05-16T20:46:19.373Z,16.80
2023-05-16T20:48:46.128Z,16.79
2023-05-16T20:51:12.801Z,16.82
2023-05-16T20:53:39.519Z,16.85
2023-05-16T20:56:08.018Z,16.84
2023-05-16T20:58:34.744Z,16.83
2023-05-16T21:01:01.466Z,16.84
2023-05-16T21:03:28.129Z,16.87
2023-05-16T21:05:54.896Z,16.89
2023-05-16T21:08:21.758Z,16.88
2023-05-16T21:10:48.509Z,16.86
2023-05-16T21:13:15.183Z,16.83
2023-05-16T21:15:41.848Z,16.77
2023-05-16T21:18:08.716Z,16.71
2023-05-16T21:20:35.556Z,16.73
2023-05-16T21:23:02.204Z,16.73
2023-05-16T21:25:29.228Z,16.68
2023-05-16T21:27:56.186Z,16.62
2023-05-16T21:30:22.863Z,16.61
2023-05-16T21:32:49.658Z,16.59
2023-05-16T21:35:16.745Z,16.57
2023-05-16T21:37:43.487Z,16.58
2023-05-16T21:40:10.894Z,16.58
2023-05-16T21:42:37.582Z,16.59
2023-05-16T21:45:04.674Z,16.58
2023-05-16T21:47:31.857Z,16.60
2023-05-16T21:49:58.619Z,16.57
2023-05-16T21:52:25.317Z,16.51
2023-05-16T21:54:52.087Z,16.46
2023-05-16T21:57:19.074Z,16.45
2023-05-16T21:59:45.911Z,16.46
2023-05-16T22:02:12.605Z,16.49
2023-05-16T22:04:39.385Z,16.47
2023-05-16T22:07:06.100Z,16.44
2023-05-16T22:09:32.774Z,16.47
2023-05-16T22:11:59.502Z,16.41
2023-05-16T22:14:26.436Z,16.36
2023-05-16T22:16:53.124Z,16.33
2023-05-16T22:19:19.839Z,16.32
2023-05-16T22:21:48.789Z,16.36
2023-05-16T22:24:15.519Z,16.37
2023-05-16T22:26:42.346Z,16.29
2023-05-16T22:29:09.125Z,16.17
2023-05-16T22:31:36.365Z,16.29
2023-05-16T22:34:03.228Z,16.31
2023-05-16T22:36:30.071Z,16.35
2023-05-16T22:38:57.132Z,16.35
2023-05-16T22:41:23.872Z,16.35
2023-05-16T22:43:50.585Z,16.35
2023-05-16T22:46:17.312Z,16.32
2023-05-16T22:48:46.801Z,16.27
2023-05-16T22:51:16.465Z,16.23
2023-05-16T22:53:43.269Z,16.22
2023-05-16T22:56:10.060Z,16.23
2023-05-16T22:58:36.764Z,16.26
2023-05-16T23:01:03.729Z,16.22
2023-05-16T23:03:30.432Z,16.20
2023-05-16T23:05:57.312Z,16.18
2023-05-16T23:08:23.946Z,16.17
2023-05-16T23:10:54.472Z,16.18
2023-05-16T23:13:21.296Z,16.22
2023-05-16T23:15:48.080Z,16.24
2023-05-16T23:18:14.745Z,16.24
2023-05-16T23:20:42.555Z,16.24
2023-05-16T23:23:14.215Z,16.26
2023-05-16T23:25:41.523Z,16.27
2023-05-16T23:28:08.567Z,16.27
2023-05-16T23:30:35.413Z,16.27
2023-05-16T23:33:02.132Z,16.28
2023-05-16T23:35:29.068Z,16.28
2023-05-16T23:37:56.160Z,16.25
2023-05-16T23:40:24.037Z,16.23
2023-05-16T23:42:52.570Z,16.23
2023-05-16T23:45:21.098Z,16.24
2023-05-16T23:47:48.431Z,16.24
2023-05-16T23:50:15.662Z,16.18
2023-05-16T23:52:42.881Z,16.21
2023-05-16T23:55:11.162Z,16.19
2023-05-16T23:57:37.995Z,16.17
